Current | Forecast
Updated: 10:00 PM CEST on March 30, 2017
Observed at Madrid Cuatro Vientos, Spain
Temperature 14°C
Humidity 63%
Dew Point 7°C
Wind WSW at 11 km/h
Pressure 1022 hPa (Steady)
Conditions Clear
Visibility -
UV N/A
Clouds
Yesterday's Maximum 20°C
Yesterday's Minimum 4°C approx.
Yesterday's Heating Degree Days 11 approx.
Sunrise8:05 AM CEST
Sunset8:41 PM CEST
Moon Rise9:48 AM CEST
Moon Set11:37 PM CEST
Moon PhaseMoon Phase
Waxing Crescent
Raw METARMETAR LEVS 302000Z 24006KT CAVOK 14/07 Q1022


Monday
. High: 62° F.
Tuesday
. High: 71° F.
Wednesday
. High: 60° F.
Thursday
. High: 64° F.
Friday
. High: 73° F.
Saturday
. High: 66° F.
Sunday
. High: 71° F.
Monday
. High: 77° F.

Units: English | Metric

Find the Weather for any City, State or Zipcode, or Country:

U.S. State List | Severe Weather | Tropical Storms | Ski Conditions
United States | Canada | Central America | South America | Asia | Europe | Australia | Africa | Islands

Weather Underground

© Copyright 2017
The Weather Company, LLC